createdAt,value
2022-12-25T00:01:39.064Z,6.15
2022-12-25T00:04:05.682Z,7.10
2022-12-25T00:06:32.206Z,6.23
2022-12-25T00:08:58.780Z,8.65
2022-12-25T00:11:25.308Z,5.75
2022-12-25T00:13:51.790Z,8.32
2022-12-25T00:16:24.146Z,9.95
2022-12-25T00:18:51.566Z,9.82
2022-12-25T00:21:18.997Z,6.82
2022-12-25T00:23:45.470Z,9.23
2022-12-25T00:26:16.240Z,7.20
2022-12-25T00:28:43.037Z,5.40
2022-12-25T00:31:15.515Z,7.93
2022-12-25T00:33:44.840Z,5.07
2022-12-25T00:36:13.068Z,5.65
2022-12-25T00:38:40.578Z,6.85
2022-12-25T00:41:16.199Z,6.22
2022-12-25T00:43:43.162Z,5.93
2022-12-25T00:46:11.957Z,6.25
2022-12-25T00:48:39.293Z,7.93
2022-12-25T00:51:10.475Z,8.18
2022-12-25T00:53:36.890Z,9.85
2022-12-25T00:56:05.807Z,7.70
2022-12-25T00:58:34.341Z,8.20
2022-12-25T01:01:01.066Z,6.50
2022-12-25T01:03:29.767Z,8.32
2022-12-25T01:06:01.462Z,7.70
2022-12-25T01:08:30.376Z,6.20
2022-12-25T01:11:02.899Z,7.10
2022-12-25T01:13:30.109Z,6.68
2022-12-25T01:15:56.841Z,8.27
2022-12-25T01:18:25.256Z,6.82
2022-12-25T01:20:51.876Z,8.48
2022-12-25T01:23:18.320Z,5.93
2022-12-25T01:25:44.782Z,4.80
2022-12-25T01:28:11.251Z,7.30
2022-12-25T01:30:37.712Z,7.45
2022-12-25T01:33:04.283Z,6.28
2022-12-25T01:35:30.812Z,8.82
2022-12-25T01:37:57.345Z,7.50
2022-12-25T01:40:23.841Z,6.53
2022-12-25T01:42:50.375Z,6.65
2022-12-25T01:45:40.918Z,9.27
2022-12-25T01:48:13.146Z,12.77
2022-12-25T01:50:42.799Z,7.85
2022-12-25T01:53:09.532Z,8.75
2022-12-25T01:55:36.908Z,6.40
2022-12-25T01:58:04.673Z,6.57
2022-12-25T02:00:33.059Z,8.20
2022-12-25T02:02:59.996Z,7.28
2022-12-25T02:05:32.194Z,6.78
2022-12-25T02:08:02.903Z,5.50
2022-12-25T02:10:29.378Z,6.85
2022-12-25T02:12:56.225Z,9.07
2022-12-25T02:15:29.957Z,8.68
2022-12-25T02:18:21.817Z,8.02
2022-12-25T02:21:10.397Z,10.48
2022-12-25T02:23:54.168Z,7.90
2022-12-25T02:26:42.395Z,7.07
2022-12-25T02:29:25.359Z,7.90
2022-12-25T02:32:05.394Z,7.07
2022-12-25T02:34:46.270Z,7.88
2022-12-25T02:37:18.704Z,6.55
2022-12-25T02:40:00.595Z,9.13
2022-12-25T02:42:57.707Z,12.65
2022-12-25T02:48:33.112Z,7.55
2022-12-25T02:51:20.931Z,6.85
2022-12-25T02:54:08.997Z,8.38
2022-12-25T02:56:58.444Z,6.63
2022-12-25T02:59:46.190Z,7.65
2022-12-25T03:02:33.484Z,6.40
2022-12-25T03:05:22.852Z,7.60
2022-12-25T03:07:49.883Z,6.05
2022-12-25T03:10:36.585Z,6.03
2022-12-25T03:13:16.090Z,4.57
2022-12-25T03:16:01.197Z,7.32
2022-12-25T03:18:31.216Z,7.68
2022-12-25T03:21:17.298Z,6.43
2022-12-25T03:24:23.230Z,6.53
2022-12-25T03:26:55.692Z,7.50
2022-12-25T03:29:41.784Z,5.63
2022-12-25T03:32:38.423Z,5.88
2022-12-25T03:35:23.941Z,5.78
2022-12-25T03:38:52.099Z,5.07
2022-12-25T03:41:42.845Z,8.75
2022-12-25T03:44:43.158Z,4.47
2022-12-25T03:47:48.510Z,6.00
2022-12-25T03:50:45.868Z,5.60
2022-12-25T03:53:37.381Z,6.55
2022-12-25T03:56:23.366Z,4.30
2022-12-25T03:59:11.073Z,7.43
2022-12-25T04:01:56.067Z,5.22
2022-12-25T04:04:41.063Z,5.38
2022-12-25T04:07:26.191Z,6.38
2022-12-25T04:10:11.222Z,4.97
2022-12-25T04:12:56.048Z,4.50
2022-12-25T04:15:41.096Z,6.28
2022-12-25T04:18:26.176Z,7.35
2022-12-25T04:21:10.972Z,6.03
2022-12-25T04:23:55.805Z,8.75
2022-12-25T04:26:40.741Z,4.75
2022-12-25T04:29:25.715Z,4.28
2022-12-25T04:32:10.524Z,9.15
2022-12-25T04:34:55.857Z,7.40
2022-12-25T04:37:23.280Z,8.25
2022-12-25T04:39:50.019Z,8.40
2022-12-25T04:42:17.389Z,4.05
2022-12-25T04:44:43.834Z,10.18
2022-12-25T04:47:11.782Z,7.40
2022-12-25T04:49:38.641Z,4.40
2022-12-25T04:52:05.110Z,4.30
2022-12-25T04:54:31.588Z,6.20
2022-12-25T04:56:57.991Z,4.60
2022-12-25T04:59:24.465Z,5.57
2022-12-25T05:01:50.982Z,10.05
2022-12-25T05:04:17.478Z,5.82
2022-12-25T05:06:43.989Z,4.95
2022-12-25T05:11:37.882Z,5.75
2022-12-25T05:14:04.368Z,10.13
2022-12-25T05:16:31.050Z,4.97
2022-12-25T05:18:57.773Z,9.27
2022-12-25T05:21:24.231Z,5.87
2022-12-25T05:23:52.407Z,5.10
2022-12-25T05:26:22.511Z,7.07
2022-12-25T05:28:49.591Z,7.25
2022-12-25T05:31:16.838Z,11.95
2022-12-25T05:33:43.758Z,5.78
2022-12-25T05:36:11.436Z,12.93
2022-12-25T05:41:05.518Z,4.70
2022-12-25T05:43:32.142Z,6.13
2022-12-25T05:45:58.961Z,6.55
2022-12-25T05:48:25.433Z,10.52
2022-12-25T05:50:52.080Z,9.63
2022-12-25T05:53:18.533Z,7.47
2022-12-25T05:55:45.014Z,6.28
2022-12-25T05:58:13.471Z,7.90
2022-12-25T06:00:43.294Z,4.78
2022-12-25T06:03:09.988Z,6.40
2022-12-25T06:05:38.344Z,5.82
2022-12-25T06:08:04.957Z,10.40
2022-12-25T06:10:31.416Z,6.53
2022-12-25T06:12:57.948Z,6.80
2022-12-25T06:15:24.532Z,8.60
2022-12-25T06:17:50.973Z,4.83
2022-12-25T06:20:17.546Z,8.95
2022-12-25T06:22:44.075Z,9.30
2022-12-25T06:25:10.609Z,5.40
2022-12-25T06:27:37.328Z,5.05
2022-12-25T06:30:04.920Z,7.22
2022-12-25T06:34:58.133Z,11.90
2022-12-25T06:37:24.631Z,7.10
2022-12-25T06:39:51.137Z,5.47
2022-12-25T06:42:17.773Z,5.97
2022-12-25T06:44:44.786Z,4.77
2022-12-25T06:47:11.517Z,6.75
2022-12-25T06:49:38.040Z,8.33
2022-12-25T06:52:04.599Z,7.82
2022-12-25T06:54:31.114Z,11.05
2022-12-25T06:56:57.609Z,7.78
2022-12-25T06:59:24.120Z,6.07
2022-12-25T07:01:55.437Z,4.90
2022-12-25T07:04:33.605Z,9.43
2022-12-25T07:07:06.094Z,11.02
2022-12-25T07:09:35.770Z,9.15
2022-12-25T07:12:08.164Z,9.05
2022-12-25T07:14:34.722Z,8.05
2022-12-25T07:17:01.229Z,9.68
2022-12-25T07:19:27.907Z,8.80
2022-12-25T07:21:54.368Z,7.57
2022-12-25T07:24:22.117Z,8.52
2022-12-25T07:26:49.723Z,9.35
2022-12-25T07:31:43.095Z,10.35
2022-12-25T07:34:09.737Z,6.38
2022-12-25T07:36:36.280Z,12.00
2022-12-25T07:39:02.931Z,8.48
2022-12-25T07:41:29.413Z,6.87
2022-12-25T07:43:55.937Z,8.20
2022-12-25T07:46:23.197Z,8.43
2022-12-25T07:48:50.071Z,8.98
2022-12-25T07:51:16.851Z,7.00
2022-12-25T07:53:43.430Z,7.97
2022-12-25T07:56:18.673Z,9.02
2022-12-25T07:58:46.277Z,10.98
2022-12-25T08:03:58.957Z,5.18
2022-12-25T08:06:29.890Z,10.00
2022-12-25T08:08:58.294Z,8.63
2022-12-25T08:11:24.795Z,11.15
2022-12-25T08:13:51.403Z,10.63
2022-12-25T08:16:17.902Z,11.83
2022-12-25T08:18:44.482Z,7.53
2022-12-25T08:21:14.035Z,11.38
2022-12-25T08:23:43.162Z,9.68
2022-12-25T08:26:14.076Z,11.85
2022-12-25T08:28:40.768Z,11.00
2022-12-25T08:31:25.694Z,14.90
2022-12-25T08:33:54.812Z,18.90
2022-12-25T08:36:22.334Z,13.77
2022-12-25T08:41:16.261Z,14.02
2022-12-25T08:43:43.305Z,15.98
2022-12-25T08:46:10.412Z,18.50
2022-12-25T08:48:37.343Z,14.20
2022-12-25T08:51:04.851Z,12.98
2022-12-25T08:53:31.524Z,8.85
2022-12-25T08:56:04.515Z,14.97
2022-12-25T08:58:31.217Z,7.80
2022-12-25T09:00:57.717Z,16.03
2022-12-25T09:03:24.744Z,13.52
2022-12-25T09:05:52.139Z,17.48
2022-12-25T09:08:19.772Z,22.00
2022-12-25T09:13:12.889Z,16.50
2022-12-25T09:15:39.944Z,14.68
2022-12-25T09:18:06.747Z,12.85
2022-12-25T09:20:33.328Z,12.45
2022-12-25T09:22:59.759Z,11.73
2022-12-25T09:25:26.135Z,14.27
2022-12-25T09:27:52.531Z,11.02
2022-12-25T09:30:18.952Z,10.98
2022-12-25T09:32:45.316Z,10.60
2022-12-25T09:35:13.899Z,8.75
2022-12-25T09:37:40.275Z,8.35
2022-12-25T09:40:07.661Z,6.80
2022-12-25T09:42:36.886Z,7.93
2022-12-25T09:45:32.921Z,8.90
2022-12-25T09:47:59.274Z,9.00
2022-12-25T09:50:48.475Z,9.32
2022-12-25T09:53:20.666Z,8.05
2022-12-25T09:56:01.593Z,8.60
2022-12-25T09:58:29.770Z,11.75
2022-12-25T10:01:19.419Z,7.93
2022-12-25T10:03:56.996Z,11.95
2022-12-25T10:06:34.356Z,7.75
2022-12-25T10:12:18.740Z,7.72
2022-12-25T10:15:17.689Z,8.77
2022-12-25T10:18:00.718Z,8.02
2022-12-25T10:20:51.361Z,7.72
2022-12-25T10:23:45.884Z,6.47
2022-12-25T10:26:21.503Z,8.93
2022-12-25T10:29:13.613Z,7.72
2022-12-25T10:31:41.695Z,9.85
2022-12-25T10:34:10.913Z,10.82
2022-12-25T10:36:37.313Z,12.05
2022-12-25T10:39:04.001Z,9.85
2022-12-25T10:41:47.597Z,7.78
2022-12-25T10:44:16.119Z,10.77
2022-12-25T10:46:48.818Z,7.78
2022-12-25T10:49:17.076Z,9.75
2022-12-25T10:51:43.930Z,9.05
2022-12-25T10:54:28.587Z,10.23
2022-12-25T10:57:10.171Z,10.32
2022-12-25T10:59:49.723Z,9.60
2022-12-25T11:02:26.867Z,12.18
2022-12-25T11:05:37.878Z,8.48
2022-12-25T11:08:19.539Z,6.18
2022-12-25T11:10:53.120Z,10.20
2022-12-25T11:13:24.971Z,7.25
2022-12-25T11:16:03.451Z,8.90
2022-12-25T11:21:19.407Z,7.50
2022-12-25T11:23:49.100Z,10.20
2022-12-25T11:26:17.843Z,6.25
2022-12-25T11:28:45.671Z,12.38
2022-12-25T11:31:16.232Z,7.57
2022-12-25T11:33:55.016Z,7.03
2022-12-25T11:36:38.951Z,7.97
2022-12-25T11:39:25.778Z,8.88
2022-12-25T11:42:00.781Z,6.07
2022-12-25T11:44:45.450Z,11.02
2022-12-25T11:47:28.339Z,9.30
2022-12-25T11:50:01.508Z,7.25
2022-12-25T11:52:34.786Z,8.57
2022-12-25T11:55:15.261Z,11.52
2022-12-25T11:57:44.604Z,11.30
2022-12-25T12:00:14.685Z,9.05
2022-12-25T12:02:51.268Z,7.65
2022-12-25T12:05:23.249Z,9.55
2022-12-25T12:07:57.816Z,6.25
2022-12-25T12:10:50.815Z,8.15
2022-12-25T12:13:28.387Z,7.28
2022-12-25T12:15:54.825Z,6.90
2022-12-25T12:18:28.451Z,5.82
2022-12-25T12:21:17.334Z,6.45
2022-12-25T12:24:02.977Z,6.90
2022-12-25T12:26:36.729Z,10.52
2022-12-25T12:29:05.891Z,12.82
2022-12-25T12:31:41.166Z,9.35
2022-12-25T12:34:21.590Z,12.07
2022-12-25T12:36:49.766Z,15.05
2022-12-25T12:39:26.870Z,10.15
2022-12-25T12:41:53.494Z,11.68
2022-12-25T12:44:23.800Z,14.23
2022-12-25T12:46:55.992Z,13.63
2022-12-25T12:49:28.298Z,11.30
2022-12-25T12:52:07.417Z,14.35
2022-12-25T12:54:59.827Z,11.65
2022-12-25T12:57:29.451Z,10.93
2022-12-25T12:59:58.979Z,13.60
2022-12-25T13:02:32.307Z,10.90
2022-12-25T13:05:03.735Z,16.42
2022-12-25T13:07:43.864Z,10.50
2022-12-25T13:10:38.730Z,11.35
2022-12-25T13:13:12.432Z,12.43
2022-12-25T13:15:39.067Z,13.10
2022-12-25T13:18:13.220Z,11.00
2022-12-25T13:20:56.833Z,10.50
2022-12-25T13:23:30.256Z,12.50
2022-12-25T13:26:00.564Z,11.18
2022-12-25T13:28:31.643Z,17.58
2022-12-25T13:31:17.085Z,13.75
2022-12-25T13:33:52.283Z,12.38
2022-12-25T13:36:18.960Z,12.05
2022-12-25T13:38:47.329Z,8.97
2022-12-25T13:41:38.140Z,9.88
2022-12-25T13:44:14.425Z,9.85
2022-12-25T13:46:40.797Z,9.48
2022-12-25T13:49:14.792Z,10.27
2022-12-25T13:51:41.157Z,8.65
2022-12-25T13:54:11.577Z,9.95
2022-12-25T13:56:43.182Z,9.50
2022-12-25T13:59:15.955Z,6.47
2022-12-25T14:01:43.946Z,10.93
2022-12-25T14:04:16.482Z,10.07
2022-12-25T14:06:42.956Z,11.98
2022-12-25T14:09:11.191Z,12.18
2022-12-25T14:11:39.891Z,10.43
2022-12-25T14:14:24.281Z,9.45
2022-12-25T14:16:54.792Z,12.57
2022-12-25T14:19:27.522Z,8.63
2022-12-25T14:21:59.195Z,10.20
2022-12-25T14:24:27.345Z,11.60
2022-12-25T14:27:01.791Z,9.25
2022-12-25T14:29:38.703Z,10.50
2022-12-25T14:32:15.273Z,7.25
2022-12-25T14:34:43.644Z,10.30
2022-12-25T14:37:16.570Z,10.18
2022-12-25T14:39:47.552Z,13.50
2022-12-25T14:42:26.014Z,14.98
2022-12-25T14:45:01.204Z,11.25
2022-12-25T14:47:27.966Z,12.63
2022-12-25T14:49:54.731Z,14.63
2022-12-25T14:52:23.196Z,13.70
2022-12-25T14:54:56.563Z,15.50
2022-12-25T14:57:29.673Z,8.98
2022-12-25T14:59:58.846Z,19.80
2022-12-25T15:02:25.821Z,15.40
2022-12-25T15:04:53.408Z,14.85
2022-12-25T15:07:30.965Z,15.80
2022-12-25T15:10:27.136Z,17.30
2022-12-25T15:12:43.839Z,11.98
2022-12-25T15:15:10.349Z,16.60
2022-12-25T15:17:38.141Z,16.88
2022-12-25T15:20:05.438Z,16.55
2022-12-25T15:22:54.287Z,13.50
2022-12-25T15:25:21.753Z,16.02
2022-12-25T15:27:48.581Z,13.25
2022-12-25T15:30:15.072Z,18.70
2022-12-25T15:32:41.429Z,17.10
2022-12-25T15:35:15.331Z,17.00
2022-12-25T15:37:41.779Z,18.33
2022-12-25T15:40:11.301Z,20.95
2022-12-25T15:42:38.207Z,17.67
2022-12-25T15:45:04.836Z,17.52
2022-12-25T15:47:32.529Z,17.20
2022-12-25T15:49:58.879Z,16.23
2022-12-25T15:52:25.228Z,14.95
2022-12-25T15:54:54.094Z,18.27
2022-12-25T15:57:22.827Z,17.55
2022-12-25T15:59:49.291Z,17.73
2022-12-25T16:02:18.901Z,20.13
2022-12-25T16:04:45.558Z,15.52
2022-12-25T16:07:17.103Z,17.25
2022-12-25T16:09:43.839Z,17.33
2022-12-25T16:12:10.294Z,14.90
2022-12-25T16:14:37.191Z,17.05
2022-12-25T16:17:04.507Z,18.30
2022-12-25T16:19:31.198Z,16.90
2022-12-25T16:21:57.528Z,18.93
2022-12-25T16:24:24.039Z,14.48
2022-12-25T16:26:50.389Z,17.77
2022-12-25T16:29:16.834Z,15.35
2022-12-25T16:31:43.225Z,16.00
2022-12-25T16:34:10.110Z,14.27
2022-12-25T16:36:37.067Z,16.02
2022-12-25T16:39:04.112Z,15.30
2022-12-25T16:41:30.716Z,16.63
2022-12-25T16:43:57.082Z,12.70
2022-12-25T16:46:23.628Z,14.25
2022-12-25T16:48:50.307Z,14.63
2022-12-25T16:51:18.990Z,15.10
2022-12-25T16:53:45.886Z,18.00
2022-12-25T16:56:25.371Z,15.70
2022-12-25T16:58:52.048Z,17.73
2022-12-25T17:01:20.685Z,15.93
2022-12-25T17:03:47.863Z,18.10
2022-12-25T17:06:16.990Z,20.13
2022-12-25T17:08:43.519Z,19.27
2022-12-25T17:11:10.449Z,14.45
2022-12-25T17:13:36.939Z,17.35
2022-12-25T17:16:18.582Z,18.50
2022-12-25T17:18:45.327Z,16.98
2022-12-25T17:21:12.118Z,16.50
2022-12-25T17:23:38.843Z,14.63
2022-12-25T17:26:06.228Z,14.60
2022-12-25T17:28:34.582Z,18.60
2022-12-25T17:31:05.138Z,17.63
2022-12-25T17:33:31.792Z,18.20
2022-12-25T17:36:06.237Z,18.90
2022-12-25T17:38:33.981Z,14.80
2022-12-25T17:41:02.315Z,16.58
2022-12-25T17:43:28.846Z,21.10
2022-12-25T17:45:55.235Z,16.88
2022-12-25T17:48:21.631Z,16.52
2022-12-25T17:50:48.365Z,23.83
2022-12-25T17:53:14.782Z,14.55
2022-12-25T17:55:41.394Z,17.60
2022-12-25T17:58:08.467Z,16.33
2022-12-25T18:00:35.783Z,17.58
2022-12-25T18:03:09.083Z,14.70
2022-12-25T18:05:37.778Z,15.98
2022-12-25T18:08:05.256Z,19.83
2022-12-25T18:13:05.486Z,19.20
2022-12-25T18:15:31.934Z,15.95
2022-12-25T18:17:58.348Z,19.33
2022-12-25T18:20:24.710Z,14.60
2022-12-25T18:22:51.158Z,16.23
2022-12-25T18:25:17.575Z,15.65
2022-12-25T18:27:43.970Z,18.95
2022-12-25T18:30:10.610Z,17.05
2022-12-25T18:32:37.077Z,15.07
2022-12-25T18:35:03.570Z,17.00
2022-12-25T18:37:34.396Z,17.63
2022-12-25T18:40:05.133Z,16.80
2022-12-25T18:42:40.782Z,15.23
2022-12-25T18:45:11.006Z,16.45
2022-12-25T18:47:37.421Z,19.42
2022-12-25T18:50:04.354Z,14.50
2022-12-25T18:52:49.304Z,17.85
2022-12-25T18:55:17.549Z,14.50
2022-12-25T18:57:43.955Z,20.63
2022-12-25T19:00:10.822Z,18.80
2022-12-25T19:02:37.412Z,15.23
2022-12-25T19:05:04.017Z,16.17
2022-12-25T19:07:30.353Z,19.73
2022-12-25T19:09:56.717Z,17.58
2022-12-25T19:12:23.876Z,19.63
2022-12-25T19:14:50.347Z,14.30
2022-12-25T19:17:17.815Z,17.67
2022-12-25T19:22:10.742Z,16.23
2022-12-25T19:24:37.282Z,15.07
2022-12-25T19:27:04.185Z,16.15
2022-12-25T19:29:31.251Z,15.23
2022-12-25T19:31:58.015Z,14.20
2022-12-25T19:34:25.855Z,18.73
2022-12-25T19:36:52.258Z,15.70
2022-12-25T19:39:19.125Z,19.75
2022-12-25T19:41:45.486Z,16.23
2022-12-25T19:44:11.885Z,13.05
2022-12-25T19:46:40.698Z,15.05
2022-12-25T19:49:14.305Z,16.08
2022-12-25T19:51:43.796Z,14.32
2022-12-25T19:54:13.211Z,11.90
2022-12-25T19:56:40.557Z,14.43
2022-12-25T19:59:06.967Z,15.05
2022-12-25T20:01:33.492Z,15.95
2022-12-25T20:04:00.051Z,15.07
2022-12-25T20:06:32.608Z,14.95
2022-12-25T20:09:21.266Z,13.52
2022-12-25T20:11:48.580Z,20.45
2022-12-25T20:14:16.442Z,17.80
2022-12-25T20:16:44.168Z,20.33
2022-12-25T20:19:13.759Z,16.25
2022-12-25T20:21:40.553Z,20.13
2022-12-25T20:24:10.423Z,18.88
2022-12-25T20:26:38.830Z,18.42
2022-12-25T20:29:05.544Z,16.58
2022-12-25T20:31:34.004Z,17.85
2022-12-25T20:34:05.460Z,18.52
2022-12-25T20:36:36.736Z,15.93
2022-12-25T20:39:05.528Z,15.38
2022-12-25T20:41:32.121Z,21.52
2022-12-25T20:43:58.575Z,15.87
2022-12-25T20:46:26.061Z,17.02
2022-12-25T20:51:23.059Z,22.83
2022-12-25T20:53:50.357Z,17.08
2022-12-25T20:56:18.781Z,17.38
2022-12-25T20:58:45.818Z,15.85
2022-12-25T21:01:17.514Z,15.93
2022-12-25T21:03:44.655Z,17.45
2022-12-25T21:06:11.980Z,17.88
2022-12-25T21:08:39.106Z,17.13
2022-12-25T21:11:05.672Z,14.07
2022-12-25T21:13:34.475Z,16.58
2022-12-25T21:16:01.174Z,19.50
2022-12-25T21:18:28.236Z,17.33
2022-12-25T21:20:57.745Z,17.20
2022-12-25T21:23:28.116Z,19.92
2022-12-25T21:25:57.082Z,14.68
2022-12-25T21:28:24.318Z,16.02
2022-12-25T21:30:50.682Z,17.95
2022-12-25T21:33:35.743Z,18.13
2022-12-25T21:36:10.098Z,16.83
2022-12-25T21:38:36.977Z,19.85
2022-12-25T21:41:10.336Z,17.67
2022-12-25T21:43:38.420Z,19.38
2022-12-25T21:46:09.810Z,16.15
2022-12-25T21:48:41.323Z,17.17
2022-12-25T21:51:31.285Z,17.65
2022-12-25T21:53:58.415Z,19.42
2022-12-25T21:56:25.548Z,17.15
2022-12-25T21:58:51.940Z,18.30
2022-12-25T22:01:18.419Z,17.45
2022-12-25T22:03:45.182Z,18.13
2022-12-25T22:06:31.539Z,15.63
2022-12-25T22:08:58.047Z,17.55
2022-12-25T22:11:44.761Z,13.20
2022-12-25T22:14:52.657Z,19.67
2022-12-25T22:17:49.848Z,15.52
2022-12-25T22:20:22.429Z,17.77
2022-12-25T22:22:49.129Z,12.05
2022-12-25T22:25:16.360Z,16.55
2022-12-25T22:27:44.492Z,14.90
2022-12-25T22:30:17.233Z,15.73
2022-12-25T22:32:44.032Z,15.63
2022-12-25T22:35:12.220Z,14.45
2022-12-25T22:37:39.443Z,15.90
2022-12-25T22:40:07.436Z,17.35
2022-12-25T22:42:33.854Z,13.55
2022-12-25T22:45:00.247Z,17.75
2022-12-25T22:47:26.660Z,14.32
2022-12-25T22:49:53.046Z,15.52
2022-12-25T22:52:19.456Z,15.50
2022-12-25T22:54:45.855Z,13.20
2022-12-25T22:57:12.243Z,14.63
2022-12-25T22:59:38.602Z,14.93
2022-12-25T23:02:05.166Z,13.93
2022-12-25T23:04:32.067Z,14.50
2022-12-25T23:06:58.585Z,12.18
2022-12-25T23:09:27.953Z,14.45
2022-12-25T23:11:58.841Z,13.02
2022-12-25T23:14:41.916Z,16.33
2022-12-25T23:17:32.000Z,12.77
2022-12-25T23:20:18.925Z,13.80
2022-12-25T23:23:04.682Z,17.70
2022-12-25T23:25:49.737Z,17.75
2022-12-25T23:28:36.177Z,14.60
2022-12-25T23:31:02.686Z,13.95
2022-12-25T23:33:29.218Z,14.38
2022-12-25T23:35:55.702Z,14.77
2022-12-25T23:38:22.209Z,13.70
2022-12-25T23:40:48.577Z,15.95
2022-12-25T23:43:15.041Z,14.02
2022-12-25T23:45:41.477Z,15.30
2022-12-25T23:48:07.851Z,15.85
2022-12-25T23:50:34.227Z,13.77
2022-12-25T23:53:00.578Z,14.27
2022-12-25T23:55:26.950Z,14.27
2022-12-25T23:57:53.322Z,15.82
